createdAt,value
2019-05-07T00:08:12.204Z,8.10
2019-05-07T00:10:58.942Z,8.00
2019-05-07T00:14:03.150Z,8.10
2019-05-07T00:56:42.847Z,8.10
2019-05-07T00:59:46.512Z,8.20
2019-05-07T01:02:53.638Z,8.30
2019-05-07T01:13:37.667Z,8.30
2019-05-07T01:20:27.990Z,8.20
2019-05-07T01:30:43.180Z,7.90
2019-05-07T02:47:23.707Z,6.70
2019-05-07T04:31:14.026Z,5.90
2019-05-07T04:38:19.552Z,5.90
2019-05-07T04:42:03.701Z,5.40
2019-05-07T05:50:13.409Z,6.10
2019-05-07T05:53:32.725Z,6.40
2019-05-07T06:03:48.500Z,6.60
2019-05-07T06:06:28.107Z,6.70
2019-05-07T06:09:09.797Z,6.60
2019-05-07T06:11:52.074Z,6.60
2019-05-07T06:14:45.211Z,6.80
2019-05-07T06:17:22.281Z,6.90
2019-05-07T06:19:56.524Z,7.30
2019-05-07T06:22:43.707Z,7.60
2019-05-07T06:25:15.643Z,7.80
2019-05-07T06:27:43.463Z,8.00
2019-05-07T06:30:12.096Z,8.10
2019-05-07T06:32:39.913Z,8.00
2019-05-07T06:35:07.611Z,8.10
2019-05-07T06:37:35.469Z,8.20
2019-05-07T06:40:29.385Z,8.20
2019-05-07T06:43:23.489Z,8.20
2019-05-07T06:45:53.497Z,8.00
2019-05-07T06:48:34.767Z,7.90
2019-05-07T06:50:57.143Z,8.10
2019-05-07T06:53:26.880Z,8.20
2019-05-07T06:55:56.336Z,8.40
2019-05-07T06:58:26.216Z,8.50
2019-05-07T07:01:29.143Z,8.70
2019-05-07T07:04:19.148Z,8.70
2019-05-07T07:07:27.564Z,8.80
2019-05-07T07:10:22.665Z,9.00
2019-05-07T07:12:50.574Z,9.10
2019-05-07T07:15:23.032Z,9.20
2019-05-07T07:17:52.380Z,9.30
2019-05-07T07:20:21.879Z,9.40
2019-05-07T07:22:52.073Z,9.50
2019-05-07T07:25:22.917Z,9.60
2019-05-07T07:27:52.149Z,9.40
2019-05-07T07:30:41.958Z,9.30
2019-05-07T07:33:12.121Z,9.40
2019-05-07T07:35:42.735Z,9.50
2019-05-07T07:38:28.498Z,9.50
2019-05-07T07:41:05.401Z,9.70
2019-05-07T07:43:35.843Z,9.90
2019-05-07T07:49:35.209Z,10.00
2019-05-07T07:52:23.018Z,10.10
2019-05-07T07:59:24.389Z,10.40
2019-05-07T08:02:42.498Z,10.70
2019-05-07T08:05:16.222Z,10.90
2019-05-07T08:08:36.385Z,11.20
2019-05-07T08:11:05.090Z,11.40
2019-05-07T08:13:54.093Z,11.70
2019-05-07T08:16:22.264Z,11.80
2019-05-07T08:18:52.525Z,12.10
2019-05-07T08:21:28.664Z,12.30
2019-05-07T08:24:43.698Z,12.40
2019-05-07T08:27:12.797Z,12.70
2019-05-07T08:29:43.134Z,13.00
2019-05-07T08:32:37.947Z,13.10
2019-05-07T08:35:25.064Z,13.30
2019-05-07T08:37:59.015Z,13.60
2019-05-07T08:40:27.886Z,13.90
2019-05-07T08:42:58.277Z,14.40
2019-05-07T08:45:44.705Z,14.50
2019-05-07T08:48:46.620Z,14.40
2019-05-07T08:51:22.350Z,14.40
2019-05-07T08:54:04.928Z,14.60
2019-05-07T08:56:39.422Z,14.70
2019-05-07T08:59:09.329Z,14.80
2019-05-07T09:06:11.755Z,15.30
2019-05-07T09:20:27.619Z,15.80
2019-05-07T09:23:33.832Z,15.40
2019-05-07T09:30:56.433Z,14.90
2019-05-07T09:33:33.132Z,15.20
2019-05-07T09:36:23.283Z,15.50
2019-05-07T09:38:59.007Z,15.80
2019-05-07T09:41:37.525Z,15.80
2019-05-07T09:44:15.786Z,16.00
2019-05-07T09:50:14.824Z,16.30
2019-05-07T09:53:04.343Z,16.50
2019-05-07T09:55:42.554Z,16.60
2019-05-07T09:58:12.516Z,16.70
2019-05-07T10:00:42.507Z,16.00
2019-05-07T10:03:12.642Z,15.30
2019-05-07T10:05:42.799Z,15.50
2019-05-07T10:08:12.773Z,15.80
2019-05-07T10:10:41.707Z,16.10
2019-05-07T10:13:18.819Z,15.70
2019-05-07T10:15:46.844Z,15.50
2019-05-07T10:18:16.261Z,15.20
2019-05-07T10:20:44.257Z,15.40
2019-05-07T10:23:22.962Z,15.50
2019-05-07T10:25:52.527Z,15.40
2019-05-07T10:28:22.724Z,15.50
2019-05-07T10:30:52.359Z,15.50
2019-05-07T10:33:22.707Z,15.70
2019-05-07T10:35:52.691Z,15.80
2019-05-07T10:38:21.870Z,15.80
2019-05-07T10:40:50.254Z,16.00
2019-05-07T10:43:18.676Z,16.10
2019-05-07T10:45:58.360Z,16.30
2019-05-07T10:48:40.743Z,16.60
2019-05-07T10:51:08.438Z,16.70
2019-05-07T10:53:36.090Z,16.90
2019-05-07T10:56:03.921Z,17.30
2019-05-07T10:58:32.165Z,16.90
2019-05-07T11:00:59.959Z,16.90
2019-05-07T11:03:27.783Z,16.90
2019-05-07T11:05:55.485Z,17.10
2019-05-07T11:08:25.671Z,17.00
2019-05-07T11:10:52.948Z,16.80
2019-05-07T11:13:21.885Z,16.80
2019-05-07T11:15:52.351Z,16.80
2019-05-07T11:18:28.674Z,16.90
2019-05-07T11:20:56.413Z,16.70
2019-05-07T11:23:24.455Z,16.60
2019-05-07T11:25:53.575Z,16.70
2019-05-07T11:28:33.066Z,17.00
2019-05-07T11:31:07.950Z,17.20
2019-05-07T11:33:37.777Z,17.20
2019-05-07T11:36:46.341Z,17.30
2019-05-07T11:39:19.226Z,17.30
2019-05-07T11:45:37.488Z,16.70
2019-05-07T11:48:05.857Z,16.60
2019-05-07T11:51:01.495Z,16.80
2019-05-07T11:53:23.311Z,17.00
2019-05-07T11:55:52.660Z,17.20
2019-05-07T11:58:21.958Z,17.10
2019-05-07T12:00:58.270Z,17.00
2019-05-07T12:03:32.430Z,16.90
2019-05-07T12:06:02.186Z,17.00
2019-05-07T12:09:03.094Z,17.30
2019-05-07T12:11:32.230Z,17.40
2019-05-07T12:14:01.881Z,16.70
2019-05-07T12:16:31.869Z,16.30
2019-05-07T12:19:03.072Z,15.70
2019-05-07T12:21:33.837Z,15.60
2019-05-07T12:24:06.408Z,15.90
2019-05-07T12:26:48.234Z,16.30
2019-05-07T12:29:17.850Z,16.20
2019-05-07T12:31:59.505Z,16.30
2019-05-07T12:34:42.393Z,16.40
2019-05-07T12:37:15.652Z,16.70
2019-05-07T12:39:44.854Z,16.50
2019-05-07T12:42:16.008Z,16.60
2019-05-07T12:44:45.427Z,16.80
2019-05-07T12:47:13.291Z,16.90
2019-05-07T12:49:42.892Z,16.80
2019-05-07T12:52:24.087Z,16.70
2019-05-07T12:55:05.327Z,16.40
2019-05-07T12:57:33.358Z,16.30
2019-05-07T13:00:19.655Z,16.50
2019-05-07T13:03:07.904Z,16.60
2019-05-07T13:05:36.030Z,16.70
2019-05-07T13:08:04.360Z,16.90
2019-05-07T13:10:32.619Z,17.00
2019-05-07T13:13:02.185Z,16.90
2019-05-07T13:15:32.489Z,16.90
2019-05-07T13:18:02.738Z,16.90
2019-05-07T13:20:32.015Z,16.90
2019-05-07T13:23:00.015Z,16.80
2019-05-07T13:25:33.108Z,16.60
2019-05-07T13:27:58.421Z,16.70
2019-05-07T13:30:26.238Z,16.90
2019-05-07T13:32:55.878Z,16.70
2019-05-07T13:35:25.472Z,16.80
2019-05-07T13:38:15.870Z,16.60
2019-05-07T13:41:02.194Z,16.70
2019-05-07T13:43:35.291Z,16.60
2019-05-07T13:46:12.124Z,16.40
2019-05-07T13:48:43.971Z,16.50
2019-05-07T13:51:12.197Z,16.40
2019-05-07T13:53:39.844Z,16.20
2019-05-07T13:56:48.801Z,16.10
2019-05-07T13:59:55.011Z,16.10
2019-05-07T14:02:24.644Z,16.20
2019-05-07T14:08:11.950Z,16.70
2019-05-07T14:11:03.155Z,17.10
2019-05-07T14:13:35.731Z,17.30
2019-05-07T14:16:12.075Z,17.30
2019-05-07T14:19:08.124Z,17.30
2019-05-07T14:21:47.305Z,17.10
2019-05-07T14:24:27.772Z,17.00
2019-05-07T14:27:02.060Z,17.00
2019-05-07T14:29:34.470Z,17.00
2019-05-07T14:32:34.098Z,16.90
2019-05-07T14:36:06.227Z,16.80
2019-05-07T14:38:42.611Z,17.00
2019-05-07T14:41:18.397Z,17.20
2019-05-07T14:44:13.182Z,17.20
2019-05-07T14:47:44.562Z,17.00
2019-05-07T14:50:26.281Z,17.10
2019-05-07T14:52:54.795Z,17.30
2019-05-07T14:55:22.160Z,17.40
2019-05-07T14:57:52.451Z,17.50
2019-05-07T15:00:27.372Z,17.60
2019-05-07T15:03:01.924Z,17.60
2019-05-07T15:05:33.621Z,17.60
2019-05-07T15:08:10.505Z,17.70
2019-05-07T15:10:34.769Z,17.70
2019-05-07T15:13:03.053Z,17.70
2019-05-07T15:15:38.327Z,17.70
2019-05-07T15:18:22.823Z,17.60
2019-05-07T15:20:54.176Z,17.70
2019-05-07T15:23:42.459Z,17.70
2019-05-07T15:26:12.657Z,17.60
2019-05-07T15:28:42.106Z,17.50
2019-05-07T15:31:18.290Z,17.60
2019-05-07T15:33:46.129Z,17.50
2019-05-07T15:36:13.938Z,17.50
2019-05-07T15:38:42.902Z,17.40
2019-05-07T15:41:10.806Z,17.40
2019-05-07T15:43:38.494Z,17.40
2019-05-07T15:46:06.173Z,17.50
2019-05-07T15:48:33.805Z,17.60
2019-05-07T15:51:01.507Z,17.70
2019-05-07T15:53:44.386Z,17.70
2019-05-07T15:56:12.526Z,17.70
2019-05-07T15:58:42.354Z,17.70
2019-05-07T16:01:12.909Z,17.80
2019-05-07T16:03:43.101Z,17.70
2019-05-07T16:06:12.692Z,17.70
2019-05-07T16:08:49.008Z,17.60
2019-05-07T16:11:15.712Z,17.50
2019-05-07T16:13:49.341Z,17.60
2019-05-07T16:16:17.110Z,17.70
2019-05-07T16:19:12.674Z,17.60
2019-05-07T16:21:42.550Z,17.40
2019-05-07T16:24:12.088Z,17.30
2019-05-07T16:27:04.913Z,17.30
2019-05-07T16:30:23.252Z,17.30
2019-05-07T16:33:20.981Z,17.60
2019-05-07T16:35:57.592Z,17.80
2019-05-07T16:38:45.585Z,17.80
2019-05-07T16:41:42.937Z,18.10
2019-05-07T16:44:35.328Z,18.10
2019-05-07T16:47:03.668Z,17.80
2019-05-07T16:49:32.738Z,17.80
2019-05-07T16:52:05.292Z,17.70
2019-05-07T16:54:30.804Z,17.70
2019-05-07T16:57:26.708Z,17.60
2019-05-07T16:59:57.518Z,17.50
2019-05-07T17:02:32.166Z,17.40
2019-05-07T17:05:13.575Z,17.40
2019-05-07T17:07:48.863Z,17.20
2019-05-07T17:10:17.863Z,17.10
2019-05-07T17:12:46.337Z,17.00
2019-05-07T17:15:14.705Z,16.90
2019-05-07T17:17:42.934Z,16.80
2019-05-07T17:20:13.938Z,16.80
2019-05-07T17:22:51.925Z,16.80
2019-05-07T17:25:54.168Z,16.60
2019-05-07T17:28:22.999Z,16.40
2019-05-07T17:30:57.024Z,16.50
2019-05-07T17:33:31.971Z,16.50
2019-05-07T17:36:03.341Z,16.40
2019-05-07T17:38:37.904Z,16.30
2019-05-07T17:41:14.999Z,16.20
2019-05-07T17:44:04.683Z,16.20
2019-05-07T17:46:47.385Z,16.10
2019-05-07T17:57:08.657Z,15.90
2019-05-07T18:00:24.652Z,15.60
2019-05-07T18:04:06.099Z,15.40
2019-05-07T18:07:03.507Z,15.40
2019-05-07T18:09:48.242Z,15.60
2019-05-07T18:12:26.094Z,15.50
2019-05-07T18:15:06.585Z,15.50
2019-05-07T18:21:32.580Z,15.40
2019-05-07T18:24:17.882Z,15.30
2019-05-07T18:26:54.353Z,15.40
2019-05-07T18:29:33.945Z,15.30
2019-05-07T18:32:12.445Z,15.20
2019-05-07T18:35:16.053Z,15.20
2019-05-07T18:38:47.086Z,15.10
2019-05-07T18:41:55.008Z,15.10
2019-05-07T18:44:43.856Z,15.00
2019-05-07T18:48:18.801Z,14.80
2019-05-07T18:55:08.349Z,14.60
2019-05-07T18:58:02.779Z,14.60
2019-05-07T19:00:34.888Z,14.40
2019-05-07T19:03:05.783Z,14.30
2019-05-07T19:05:37.358Z,14.30
2019-05-07T19:08:19.552Z,14.30
2019-05-07T19:10:55.938Z,14.20
2019-05-07T19:17:48.130Z,14.00
2019-05-07T19:20:59.027Z,14.00
2019-05-07T19:23:37.264Z,13.90
2019-05-07T19:26:05.554Z,13.80
2019-05-07T19:28:36.531Z,13.70
2019-05-07T19:31:08.029Z,13.70
2019-05-07T19:33:36.254Z,13.50
2019-05-07T19:36:04.660Z,13.40
2019-05-07T19:38:44.985Z,13.40
2019-05-07T19:41:15.814Z,13.40
2019-05-07T19:43:48.726Z,13.40
2019-05-07T19:46:19.306Z,13.20
2019-05-07T19:48:47.766Z,13.10
2019-05-07T19:51:16.855Z,13.00
2019-05-07T19:53:45.319Z,12.80
2019-05-07T19:56:17.645Z,12.50
2019-05-07T19:59:47.734Z,12.50
2019-05-07T20:02:27.078Z,12.50
2019-05-07T20:05:03.634Z,12.40
2019-05-07T20:07:44.165Z,12.20
2019-05-07T20:10:18.091Z,12.10
2019-05-07T20:12:43.179Z,12.20
2019-05-07T20:15:11.055Z,12.20
2019-05-07T20:17:41.959Z,12.40
2019-05-07T20:20:09.838Z,12.50
2019-05-07T20:22:41.846Z,12.30
2019-05-07T20:25:18.681Z,12.40
2019-05-07T20:27:41.826Z,12.30
2019-05-07T20:30:14.054Z,12.20
2019-05-07T20:33:37.713Z,12.10
2019-05-07T20:36:05.789Z,12.10
2019-05-07T20:38:33.698Z,12.10
2019-05-07T20:41:02.647Z,12.00
2019-05-07T20:43:32.301Z,11.90
2019-05-07T20:46:02.608Z,11.80
2019-05-07T20:48:36.359Z,11.60
2019-05-07T20:51:04.535Z,11.60
2019-05-07T20:53:59.988Z,11.60
2019-05-07T20:56:32.334Z,11.60
2019-05-07T20:59:00.290Z,11.60
2019-05-07T21:01:41.952Z,11.60
2019-05-07T21:04:24.501Z,11.60
2019-05-07T21:07:22.311Z,11.70
2019-05-07T21:09:53.245Z,11.60
2019-05-07T21:12:22.463Z,11.70
2019-05-07T21:15:04.272Z,11.70
2019-05-07T21:17:34.540Z,11.70
2019-05-07T21:20:07.554Z,11.50
2019-05-07T21:22:35.196Z,11.50
2019-05-07T21:25:07.391Z,11.40
2019-05-07T21:27:35.097Z,11.50
2019-05-07T21:30:05.310Z,11.60
2019-05-07T21:32:32.981Z,11.70
2019-05-07T21:35:01.077Z,11.80
2019-05-07T21:37:28.616Z,11.80
2019-05-07T21:39:56.256Z,11.90
2019-05-07T21:42:23.770Z,11.80
2019-05-07T21:44:52.632Z,11.60
2019-05-07T21:47:22.152Z,11.50
2019-05-07T21:49:49.791Z,11.50
2019-05-07T21:52:17.474Z,11.40
2019-05-07T21:55:10.239Z,11.40
2019-05-07T21:58:03.010Z,11.30
2019-05-07T22:00:42.930Z,11.30
2019-05-07T22:03:12.902Z,11.20
2019-05-07T22:05:44.098Z,11.30
2019-05-07T22:08:12.360Z,11.50
2019-05-07T22:10:39.934Z,11.50
2019-05-07T22:13:07.469Z,11.50
2019-05-07T22:15:35.226Z,11.60
2019-05-07T22:18:02.851Z,11.70
2019-05-07T22:20:31.968Z,11.70
2019-05-07T22:22:59.846Z,11.80
2019-05-07T22:25:32.687Z,11.90
2019-05-07T22:28:01.894Z,11.80
2019-05-07T22:30:36.681Z,11.80
2019-05-07T22:33:09.831Z,11.90
2019-05-07T22:35:39.936Z,11.90
2019-05-07T22:38:07.671Z,12.00
2019-05-07T22:40:35.408Z,12.00
2019-05-07T22:43:05.326Z,11.90
2019-05-07T22:45:32.936Z,11.60
2019-05-07T22:48:02.908Z,11.50
2019-05-07T22:50:37.178Z,11.50
2019-05-07T22:53:05.761Z,11.60
2019-05-07T22:55:36.487Z,11.60
2019-05-07T22:58:09.687Z,11.60
2019-05-07T23:00:50.740Z,11.70
2019-05-07T23:03:18.690Z,11.80
2019-05-07T23:05:46.365Z,11.90
2019-05-07T23:08:14.059Z,11.90
2019-05-07T23:10:42.154Z,12.00
2019-05-07T23:13:12.979Z,12.10
2019-05-07T23:15:42.806Z,12.10
2019-05-07T23:18:09.960Z,11.90
2019-05-07T23:20:37.572Z,11.80
2019-05-07T23:23:28.119Z,11.70
2019-05-07T23:25:55.763Z,11.70
2019-05-07T23:28:23.419Z,11.60
2019-05-07T23:30:51.890Z,11.60
2019-05-07T23:33:19.738Z,11.70
2019-05-07T23:35:47.455Z,11.60
2019-05-07T23:38:15.964Z,11.60
2019-05-07T23:41:12.773Z,11.70
2019-05-07T23:43:42.383Z,11.60
2019-05-07T23:46:10.094Z,11.50
2019-05-07T23:48:37.717Z,11.50
2019-05-07T23:51:05.523Z,11.50
2019-05-07T23:53:33.176Z,11.40
2019-05-07T23:56:02.776Z,11.40
2019-05-07T23:58:32.524Z,11.50
